createdAt,value
2023-08-08T00:01:18.405Z,1.30
2023-08-08T00:03:45.279Z,1.00
2023-08-08T00:06:12.190Z,1.00
2023-08-08T00:08:39.051Z,1.00
2023-08-08T00:11:06.088Z,1.00
2023-08-08T00:13:33.075Z,0.90
2023-08-08T00:16:00.197Z,0.90
2023-08-08T00:18:27.102Z,1.00
2023-08-08T00:20:54.855Z,1.00
2023-08-08T00:23:22.337Z,1.10
2023-08-08T00:25:52.162Z,1.10
2023-08-08T00:28:19.305Z,1.30
2023-08-08T00:30:46.410Z,1.30
2023-08-08T00:33:13.318Z,1.10
2023-08-08T00:35:40.245Z,1.30
2023-08-08T00:38:07.166Z,1.30
2023-08-08T00:40:34.160Z,1.40
2023-08-08T00:43:01.272Z,1.10
2023-08-08T00:45:29.423Z,1.30
2023-08-08T00:47:56.727Z,1.10
2023-08-08T00:50:24.365Z,1.20
2023-08-08T00:52:51.542Z,1.20
2023-08-08T00:55:18.764Z,1.10
2023-08-08T00:57:46.586Z,0.90
2023-08-08T01:00:13.675Z,1.40
2023-08-08T01:02:40.712Z,1.10
2023-08-08T01:05:09.269Z,1.10
2023-08-08T01:08:05.415Z,1.10
2023-08-08T01:10:37.897Z,1.10
2023-08-08T01:13:09.923Z,1.10
2023-08-08T01:15:37.843Z,1.00
2023-08-08T01:18:06.624Z,1.20
2023-08-08T01:20:34.507Z,1.10
2023-08-08T01:23:27.876Z,1.00
2023-08-08T01:25:57.914Z,1.20
2023-08-08T01:28:27.247Z,1.30
2023-08-08T01:30:56.524Z,1.00
2023-08-08T01:33:23.682Z,1.40
2023-08-08T01:35:55.811Z,0.90
2023-08-08T01:38:30.209Z,1.00
2023-08-08T01:40:58.937Z,1.00
2023-08-08T01:43:27.590Z,1.30
2023-08-08T01:45:55.223Z,1.30
2023-08-08T01:48:22.370Z,1.20
2023-08-08T01:50:49.685Z,1.40
2023-08-08T01:53:16.626Z,1.70
2023-08-08T01:55:43.969Z,2.50
2023-08-08T01:58:12.343Z,2.20
2023-08-08T02:00:39.367Z,2.50
2023-08-08T02:03:06.610Z,2.80
2023-08-08T02:05:33.972Z,2.40
2023-08-08T02:08:00.869Z,2.80
2023-08-08T02:10:27.896Z,3.10
2023-08-08T02:12:54.817Z,3.20
2023-08-08T02:15:22.039Z,2.80
2023-08-08T02:17:51.455Z,2.60
2023-08-08T02:20:19.248Z,2.90
2023-08-08T02:22:46.206Z,3.00
2023-08-08T02:25:13.385Z,2.30
2023-08-08T02:27:40.321Z,2.00
2023-08-08T02:30:11.633Z,1.60
2023-08-08T02:32:38.550Z,1.30
2023-08-08T02:35:05.893Z,1.80
2023-08-08T02:37:32.763Z,1.60
2023-08-08T02:39:59.740Z,1.30
2023-08-08T02:42:26.751Z,1.20
2023-08-08T02:44:53.741Z,1.10
2023-08-08T02:47:20.704Z,1.00
2023-08-08T02:49:47.775Z,1.10
2023-08-08T02:52:14.994Z,1.10
2023-08-08T02:54:42.046Z,1.20
2023-08-08T02:57:11.836Z,1.50
2023-08-08T02:59:39.266Z,1.30
2023-08-08T03:02:07.062Z,1.40
2023-08-08T03:04:34.887Z,1.40
2023-08-08T03:07:05.337Z,1.00
2023-08-08T03:09:33.503Z,1.30
2023-08-08T03:12:00.715Z,1.20
2023-08-08T03:14:28.065Z,1.40
2023-08-08T03:16:55.578Z,1.50
2023-08-08T03:19:23.206Z,1.20
2023-08-08T03:21:50.168Z,1.10
2023-08-08T03:24:17.361Z,1.60
2023-08-08T03:26:44.268Z,1.70
2023-08-08T03:29:11.888Z,1.70
2023-08-08T03:31:41.642Z,1.80
2023-08-08T03:34:08.609Z,1.50
2023-08-08T03:36:36.226Z,1.60
2023-08-08T03:39:04.737Z,2.00
2023-08-08T03:41:31.909Z,1.90
2023-08-08T03:43:58.992Z,2.00
2023-08-08T03:46:26.542Z,2.00
2023-08-08T03:48:54.648Z,2.00
2023-08-08T03:51:22.248Z,2.50
2023-08-08T03:53:50.340Z,2.50
2023-08-08T03:56:18.460Z,2.60
2023-08-08T03:58:45.668Z,2.50
2023-08-08T04:01:13.669Z,2.60
2023-08-08T04:03:43.316Z,2.40
2023-08-08T04:06:10.503Z,2.70
2023-08-08T04:08:37.668Z,2.50
2023-08-08T04:11:05.124Z,2.70
2023-08-08T04:13:32.399Z,3.00
2023-08-08T04:15:59.362Z,2.80
2023-08-08T04:18:26.606Z,2.30
2023-08-08T04:20:53.603Z,2.30
2023-08-08T04:23:20.666Z,2.40
2023-08-08T04:25:48.210Z,2.30
2023-08-08T04:28:15.201Z,2.90
2023-08-08T04:30:42.438Z,2.90
2023-08-08T04:33:09.753Z,3.70
2023-08-08T04:35:37.330Z,3.60
2023-08-08T04:38:04.819Z,3.30
2023-08-08T04:40:32.404Z,2.70
2023-08-08T04:42:59.483Z,2.30
2023-08-08T04:45:28.444Z,2.30
2023-08-08T04:47:55.434Z,2.20
2023-08-08T04:50:23.249Z,2.00
2023-08-08T04:52:50.951Z,1.90
2023-08-08T04:55:18.043Z,2.10
2023-08-08T04:57:45.160Z,2.00
2023-08-08T05:00:13.378Z,1.80
2023-08-08T05:02:42.489Z,2.00
2023-08-08T05:05:10.454Z,1.80
2023-08-08T05:07:39.790Z,2.40
2023-08-08T05:10:07.154Z,2.10
2023-08-08T05:12:34.875Z,2.30
2023-08-08T05:15:02.592Z,2.60
2023-08-08T05:17:32.026Z,2.20
2023-08-08T05:19:59.428Z,2.80
2023-08-08T05:22:26.779Z,2.80
2023-08-08T05:24:53.881Z,2.50
2023-08-08T05:27:20.861Z,2.20
2023-08-08T05:29:48.492Z,2.10
2023-08-08T05:32:16.291Z,1.80
2023-08-08T05:34:43.947Z,2.10
2023-08-08T05:37:17.035Z,2.20
2023-08-08T05:39:47.003Z,1.90
2023-08-08T05:42:13.986Z,1.90
2023-08-08T05:44:43.173Z,2.10
2023-08-08T05:47:10.432Z,2.00
2023-08-08T05:49:37.551Z,1.80
2023-08-08T05:52:05.157Z,1.10
2023-08-08T05:54:32.458Z,1.80
2023-08-08T05:56:59.895Z,1.80
2023-08-08T05:59:27.198Z,1.60
2023-08-08T06:01:54.485Z,2.00
2023-08-08T06:04:22.524Z,1.90
2023-08-08T06:06:50.442Z,1.80
2023-08-08T06:09:18.359Z,1.80
2023-08-08T06:11:46.014Z,2.10
2023-08-08T06:14:13.974Z,2.20
2023-08-08T06:16:41.201Z,2.00
2023-08-08T06:19:08.434Z,2.00
2023-08-08T06:21:37.273Z,2.20
2023-08-08T06:24:04.562Z,2.20
2023-08-08T06:26:31.943Z,2.10
2023-08-08T06:28:58.988Z,2.20
2023-08-08T06:31:26.097Z,2.00
2023-08-08T06:33:53.120Z,2.10
2023-08-08T06:36:20.073Z,1.60
2023-08-08T06:38:47.070Z,1.60
2023-08-08T06:41:14.218Z,2.00
2023-08-08T06:43:41.347Z,1.90
2023-08-08T06:46:08.720Z,2.00
2023-08-08T06:48:35.713Z,1.90
2023-08-08T06:51:02.713Z,1.90
2023-08-08T06:53:29.797Z,1.90
2023-08-08T06:55:56.823Z,1.60
2023-08-08T06:58:24.324Z,1.70
2023-08-08T07:00:52.294Z,1.60
2023-08-08T07:03:20.184Z,1.30
2023-08-08T07:05:48.751Z,1.60
2023-08-08T07:08:15.924Z,1.60
2023-08-08T07:10:42.918Z,1.30
2023-08-08T07:13:10.039Z,1.60
2023-08-08T07:15:37.004Z,1.70
2023-08-08T07:18:04.074Z,1.40
2023-08-08T07:20:31.159Z,1.70
2023-08-08T07:22:58.155Z,1.80
2023-08-08T07:25:25.146Z,1.60
2023-08-08T07:27:52.255Z,1.30
2023-08-08T07:30:19.477Z,1.70
2023-08-08T07:32:46.601Z,1.70
2023-08-08T07:35:13.807Z,1.60
2023-08-08T07:37:40.760Z,1.60
2023-08-08T07:40:19.169Z,1.40
2023-08-08T07:42:47.820Z,1.30
2023-08-08T07:45:15.942Z,1.80
2023-08-08T07:47:43.276Z,1.60
2023-08-08T07:50:10.888Z,1.60
2023-08-08T07:52:38.653Z,1.40
2023-08-08T07:55:06.346Z,1.20
2023-08-08T07:57:36.065Z,1.30
2023-08-08T08:00:20.122Z,1.30
2023-08-08T08:02:48.184Z,1.50
2023-08-08T08:05:15.392Z,1.30
2023-08-08T08:07:42.402Z,1.30
2023-08-08T08:10:14.289Z,1.50
2023-08-08T08:12:42.895Z,1.50
2023-08-08T08:15:10.894Z,1.30
2023-08-08T08:17:38.118Z,1.50
2023-08-08T08:20:11.928Z,1.60
2023-08-08T08:22:39.418Z,1.60
2023-08-08T08:25:09.888Z,1.20
2023-08-08T08:27:38.032Z,1.50
2023-08-08T08:30:07.935Z,1.50
2023-08-08T08:32:37.335Z,1.00
2023-08-08T08:35:07.563Z,1.20
2023-08-08T08:37:35.481Z,1.20
2023-08-08T08:40:02.864Z,1.20
2023-08-08T08:42:30.443Z,1.60
2023-08-08T08:44:59.876Z,1.50
2023-08-08T08:47:27.175Z,1.30
2023-08-08T08:49:54.234Z,1.40
2023-08-08T08:52:22.072Z,1.20
2023-08-08T08:54:49.182Z,1.10
2023-08-08T08:57:16.993Z,1.10
2023-08-08T08:59:43.830Z,1.10
2023-08-08T09:02:12.044Z,1.10
2023-08-08T09:04:39.774Z,1.20
2023-08-08T09:07:07.839Z,1.10
2023-08-08T09:09:34.834Z,1.00
2023-08-08T09:12:04.814Z,1.00
2023-08-08T09:14:32.104Z,1.30
2023-08-08T09:16:59.975Z,1.10
2023-08-08T09:19:26.999Z,1.10
2023-08-08T09:21:54.783Z,1.40
2023-08-08T09:24:22.881Z,1.20
2023-08-08T09:26:49.975Z,1.20
2023-08-08T09:29:17.083Z,1.40
2023-08-08T09:31:45.187Z,1.30
2023-08-08T09:34:12.165Z,1.50
2023-08-08T09:36:39.649Z,2.00
2023-08-08T09:39:06.630Z,1.50
2023-08-08T09:41:33.743Z,1.30
2023-08-08T09:44:02.038Z,1.30
2023-08-08T09:46:32.560Z,1.20
2023-08-08T09:49:00.156Z,1.30
2023-08-08T09:51:28.488Z,1.50
2023-08-08T09:53:57.216Z,1.30
2023-08-08T09:56:26.711Z,1.20
2023-08-08T09:58:54.492Z,1.40
2023-08-08T10:01:22.100Z,1.10
2023-08-08T10:03:52.642Z,1.50
2023-08-08T10:06:20.473Z,1.50
2023-08-08T10:08:47.993Z,1.60
2023-08-08T10:11:15.978Z,1.60
2023-08-08T10:13:51.751Z,1.30
2023-08-08T10:16:19.836Z,1.70
2023-08-08T10:18:58.059Z,1.40
2023-08-08T10:21:26.395Z,1.50
2023-08-08T10:24:09.974Z,1.70
2023-08-08T10:26:54.975Z,1.90
2023-08-08T10:29:22.786Z,1.80
2023-08-08T10:31:54.765Z,1.80
2023-08-08T10:34:23.113Z,1.50
2023-08-08T10:36:53.521Z,1.60
2023-08-08T10:39:22.322Z,1.60
2023-08-08T10:41:50.971Z,1.50
2023-08-08T10:44:24.795Z,1.80
2023-08-08T10:46:53.646Z,1.60
2023-08-08T10:49:20.873Z,1.30
2023-08-08T10:51:49.609Z,1.30
2023-08-08T10:54:24.420Z,1.30
2023-08-08T10:56:53.349Z,1.50
2023-08-08T10:59:24.906Z,1.30
2023-08-08T11:01:53.820Z,1.50
2023-08-08T11:04:23.543Z,1.40
2023-08-08T11:06:51.539Z,1.50
2023-08-08T11:09:19.481Z,1.50
2023-08-08T11:11:46.978Z,1.40
2023-08-08T11:14:16.465Z,1.20
2023-08-08T11:16:45.911Z,1.30
2023-08-08T11:19:14.273Z,1.40
2023-08-08T11:21:42.974Z,1.30
2023-08-08T11:24:11.396Z,1.40
2023-08-08T11:26:40.676Z,1.30
2023-08-08T11:29:08.412Z,1.60
2023-08-08T11:31:36.313Z,1.50
2023-08-08T11:34:03.595Z,1.40
2023-08-08T11:36:32.809Z,1.60
2023-08-08T11:39:02.296Z,1.50
2023-08-08T11:41:29.408Z,1.70
2023-08-08T11:43:56.820Z,1.50
2023-08-08T11:46:26.031Z,1.30
2023-08-08T11:48:53.255Z,1.30
2023-08-08T11:51:20.272Z,1.30
2023-08-08T11:53:55.073Z,1.40
2023-08-08T11:56:22.774Z,1.30
2023-08-08T11:58:53.022Z,1.20
2023-08-08T12:01:22.972Z,1.10
2023-08-08T12:03:49.984Z,1.00
2023-08-08T12:06:17.816Z,1.00
2023-08-08T12:08:46.299Z,1.20
2023-08-08T12:11:14.522Z,1.10
2023-08-08T12:13:43.335Z,1.40
2023-08-08T12:16:17.007Z,1.00
2023-08-08T12:18:45.756Z,1.20
2023-08-08T12:21:12.646Z,1.20
2023-08-08T12:23:39.683Z,1.00
2023-08-08T12:26:08.555Z,1.40
2023-08-08T12:28:35.798Z,0.90
2023-08-08T12:31:02.911Z,1.00
2023-08-08T12:33:30.285Z,1.20
2023-08-08T12:35:57.103Z,1.20
2023-08-08T12:38:23.997Z,1.20
2023-08-08T12:40:51.852Z,1.20
2023-08-08T12:43:18.977Z,1.30
2023-08-08T12:45:46.956Z,1.20
2023-08-08T12:48:14.142Z,1.10
2023-08-08T12:50:41.984Z,1.20
2023-08-08T12:53:09.243Z,1.40
2023-08-08T12:55:36.390Z,1.30
2023-08-08T12:58:04.868Z,1.20
2023-08-08T13:00:31.930Z,1.10
2023-08-08T13:02:59.938Z,0.90
2023-08-08T13:05:28.635Z,1.40
2023-08-08T13:07:55.713Z,1.10
2023-08-08T13:10:22.736Z,1.10
2023-08-08T13:12:49.858Z,1.30
2023-08-08T13:15:16.759Z,1.20
2023-08-08T13:17:44.642Z,1.10
2023-08-08T13:20:13.404Z,1.10
2023-08-08T13:22:40.982Z,1.20
2023-08-08T13:25:08.077Z,1.30
2023-08-08T13:27:35.278Z,0.90
2023-08-08T13:30:02.225Z,1.10
2023-08-08T13:32:29.700Z,0.90
2023-08-08T13:34:56.592Z,1.10
2023-08-08T13:37:23.528Z,1.30
2023-08-08T13:39:50.483Z,1.10
2023-08-08T13:42:17.333Z,1.30
2023-08-08T13:44:44.190Z,1.10
2023-08-08T13:47:11.126Z,1.00
2023-08-08T13:49:38.019Z,1.00
2023-08-08T13:52:05.269Z,1.00
2023-08-08T13:54:32.270Z,1.10
2023-08-08T13:56:59.182Z,1.10
2023-08-08T13:59:26.118Z,1.70
2023-08-08T14:01:52.986Z,2.10
2023-08-08T14:04:20.318Z,1.20
2023-08-08T14:06:47.217Z,1.80
2023-08-08T14:09:14.979Z,1.80
2023-08-08T14:11:43.590Z,1.50
2023-08-08T14:14:10.410Z,1.10
2023-08-08T14:16:37.570Z,1.50
2023-08-08T14:19:04.875Z,1.60
2023-08-08T14:21:31.795Z,1.50
2023-08-08T14:23:58.698Z,1.00
2023-08-08T14:26:25.651Z,1.30
2023-08-08T14:28:52.546Z,1.50
2023-08-08T14:31:19.446Z,1.20
2023-08-08T14:33:46.337Z,1.30
2023-08-08T14:36:13.397Z,1.40
2023-08-08T14:38:40.287Z,1.40
2023-08-08T14:41:07.303Z,1.50
2023-08-08T14:43:34.584Z,1.30
2023-08-08T14:46:01.553Z,1.30
2023-08-08T14:48:28.445Z,1.30
2023-08-08T14:50:55.464Z,1.40
2023-08-08T14:53:22.427Z,1.50
2023-08-08T14:55:49.315Z,1.40
2023-08-08T14:58:16.458Z,1.40
2023-08-08T15:00:43.736Z,1.50
2023-08-08T15:03:11.451Z,1.20
2023-08-08T15:05:38.534Z,1.40
2023-08-08T15:08:05.544Z,1.30
2023-08-08T15:10:35.092Z,1.50
2023-08-08T15:13:02.891Z,1.40
2023-08-08T15:15:31.002Z,1.60
2023-08-08T15:17:58.153Z,1.50
2023-08-08T15:20:25.286Z,1.40
2023-08-08T15:22:52.227Z,1.10
2023-08-08T15:25:19.264Z,1.40
2023-08-08T15:27:46.524Z,1.30
2023-08-08T15:30:13.703Z,1.40
2023-08-08T15:32:40.624Z,1.30
2023-08-08T15:35:07.814Z,1.70
2023-08-08T15:37:35.031Z,1.40
2023-08-08T15:40:01.988Z,1.30
2023-08-08T15:42:28.842Z,1.20
2023-08-08T15:44:55.761Z,1.40
2023-08-08T15:47:22.749Z,1.40
2023-08-08T15:49:49.959Z,1.40
2023-08-08T15:52:18.358Z,1.20
2023-08-08T15:54:45.651Z,1.40
2023-08-08T15:57:12.780Z,1.20
2023-08-08T15:59:43.394Z,1.10
2023-08-08T16:02:11.200Z,1.20
2023-08-08T16:04:38.668Z,1.40
2023-08-08T16:07:05.778Z,1.20
2023-08-08T16:09:32.881Z,1.40
2023-08-08T16:12:00.150Z,1.20
2023-08-08T16:14:27.975Z,1.50
2023-08-08T16:16:54.862Z,1.50
2023-08-08T16:19:23.093Z,1.10
2023-08-08T16:21:50.057Z,1.20
2023-08-08T16:24:16.955Z,1.20
2023-08-08T16:26:43.874Z,1.30
2023-08-08T16:29:10.926Z,1.50
2023-08-08T16:31:39.929Z,1.40
2023-08-08T16:34:06.811Z,1.40
2023-08-08T16:36:33.822Z,1.20
2023-08-08T16:39:16.276Z,1.30
2023-08-08T16:41:45.453Z,1.40
2023-08-08T16:44:12.314Z,1.50
2023-08-08T16:46:39.138Z,1.30
2023-08-08T16:49:08.805Z,1.40
2023-08-08T16:51:36.288Z,1.60
2023-08-08T16:54:03.363Z,1.50
2023-08-08T16:56:31.367Z,1.80
2023-08-08T16:58:59.183Z,1.40
2023-08-08T17:01:26.285Z,1.40
2023-08-08T17:03:53.338Z,1.50
2023-08-08T17:06:20.231Z,1.40
2023-08-08T17:08:47.361Z,1.50
2023-08-08T17:11:14.577Z,1.50
2023-08-08T17:13:41.579Z,1.40
2023-08-08T17:16:08.529Z,1.20
2023-08-08T17:18:35.416Z,1.60
2023-08-08T17:21:02.592Z,1.30
2023-08-08T17:23:29.497Z,1.60
2023-08-08T17:25:56.352Z,1.30
2023-08-08T17:28:23.236Z,1.70
2023-08-08T17:30:50.347Z,1.60
2023-08-08T17:33:17.233Z,1.60
2023-08-08T17:35:46.245Z,1.50
2023-08-08T17:38:13.082Z,1.60
2023-08-08T17:40:40.114Z,1.50
2023-08-08T17:43:08.007Z,1.80
2023-08-08T17:45:35.656Z,1.60
2023-08-08T17:48:02.965Z,1.60
2023-08-08T17:50:29.994Z,1.60
2023-08-08T17:52:57.854Z,1.80
2023-08-08T17:55:24.878Z,1.70
2023-08-08T17:57:51.770Z,1.80
2023-08-08T18:00:18.951Z,1.60
2023-08-08T18:02:45.799Z,1.90
2023-08-08T18:05:14.568Z,1.70
2023-08-08T18:07:42.016Z,2.00
2023-08-08T18:10:09.381Z,1.90
2023-08-08T18:12:36.322Z,1.60
2023-08-08T18:15:04.005Z,1.60
2023-08-08T18:17:31.081Z,1.50
2023-08-08T18:19:58.410Z,1.90
2023-08-08T18:22:25.270Z,1.90
2023-08-08T18:24:52.196Z,2.00
2023-08-08T18:27:19.134Z,1.90
2023-08-08T18:29:46.068Z,2.00
2023-08-08T18:32:14.975Z,1.80
2023-08-08T18:34:42.991Z,1.70
2023-08-08T18:37:10.117Z,1.80
2023-08-08T18:39:37.751Z,2.10
2023-08-08T18:42:04.830Z,2.30
2023-08-08T18:44:31.931Z,2.20
2023-08-08T18:47:01.187Z,1.90
2023-08-08T18:49:28.220Z,2.30
2023-08-08T18:51:55.094Z,2.20
2023-08-08T18:54:22.138Z,1.90
2023-08-08T18:56:49.173Z,1.90
2023-08-08T18:59:18.792Z,3.10
2023-08-08T19:01:45.814Z,4.90
2023-08-08T19:04:14.430Z,5.90
2023-08-08T19:06:41.568Z,3.80
2023-08-08T19:09:09.687Z,3.20
2023-08-08T19:11:37.686Z,3.10
2023-08-08T19:14:05.259Z,3.40
2023-08-08T19:16:32.513Z,3.00
2023-08-08T19:18:59.459Z,7.80
2023-08-08T19:21:27.872Z,9.40
2023-08-08T19:23:54.962Z,6.90
2023-08-08T19:26:22.426Z,3.70
2023-08-08T19:28:50.246Z,3.60
2023-08-08T19:31:19.441Z,3.80
2023-08-08T19:33:59.666Z,2.90
2023-08-08T19:36:33.635Z,2.60
2023-08-08T19:39:00.560Z,2.80
2023-08-08T19:41:27.688Z,2.90
2023-08-08T19:43:55.728Z,2.80
2023-08-08T19:46:23.009Z,2.90
2023-08-08T19:48:50.257Z,3.00
2023-08-08T19:51:17.244Z,2.70
2023-08-08T19:53:44.751Z,2.70
2023-08-08T19:56:11.750Z,3.10
2023-08-08T19:58:38.769Z,2.90
2023-08-08T20:01:05.685Z,2.80
2023-08-08T20:03:33.653Z,2.90
2023-08-08T20:06:01.987Z,2.80
2023-08-08T20:08:30.003Z,2.50
2023-08-08T20:10:57.160Z,2.80
2023-08-08T20:13:27.053Z,2.80
2023-08-08T20:15:55.012Z,3.00
2023-08-08T20:18:22.447Z,3.00
2023-08-08T20:20:50.856Z,2.60
2023-08-08T20:23:17.826Z,2.60
2023-08-08T20:25:44.925Z,2.90
2023-08-08T20:28:11.874Z,2.60
2023-08-08T20:30:41.447Z,2.60
2023-08-08T20:33:09.022Z,2.80
2023-08-08T20:35:35.901Z,2.70
2023-08-08T20:38:02.998Z,2.60
2023-08-08T20:40:30.084Z,2.50
2023-08-08T20:42:57.239Z,2.90
2023-08-08T20:45:24.249Z,2.60
2023-08-08T20:47:51.222Z,2.40
2023-08-08T20:50:18.283Z,2.70
2023-08-08T20:52:45.306Z,2.30
2023-08-08T20:55:12.361Z,2.30
2023-08-08T20:57:39.242Z,2.40
2023-08-08T21:00:06.869Z,2.30
2023-08-08T21:02:33.919Z,2.00
2023-08-08T21:05:00.798Z,2.30
2023-08-08T21:07:27.805Z,2.10
2023-08-08T21:09:54.655Z,1.70
2023-08-08T21:12:22.130Z,1.80
2023-08-08T21:14:49.076Z,2.00
2023-08-08T21:17:16.153Z,2.00
2023-08-08T21:19:43.033Z,1.80
2023-08-08T21:22:10.015Z,1.80
2023-08-08T21:24:36.824Z,1.70
2023-08-08T21:27:04.579Z,1.80
2023-08-08T21:29:31.852Z,1.60
2023-08-08T21:31:58.680Z,1.50
2023-08-08T21:34:25.580Z,1.70
2023-08-08T21:36:52.484Z,1.60
2023-08-08T21:39:19.295Z,1.60
2023-08-08T21:41:46.248Z,1.80
2023-08-08T21:44:13.128Z,1.70
2023-08-08T21:46:40.198Z,2.00
2023-08-08T21:49:07.290Z,1.80
2023-08-08T21:51:34.204Z,2.00
2023-08-08T21:54:01.188Z,1.80
2023-08-08T21:56:28.069Z,1.90
2023-08-08T21:58:54.930Z,2.00
2023-08-08T22:01:21.885Z,1.80
2023-08-08T22:03:49.218Z,1.80
2023-08-08T22:06:16.432Z,1.60
2023-08-08T22:08:43.506Z,1.50
2023-08-08T22:11:10.730Z,1.40
2023-08-08T22:13:37.907Z,1.50
2023-08-08T22:16:05.310Z,1.50
2023-08-08T22:18:32.361Z,1.60
2023-08-08T22:20:59.435Z,1.30
2023-08-08T22:23:26.590Z,1.30
2023-08-08T22:25:53.490Z,1.10
2023-08-08T22:28:20.351Z,1.20
2023-08-08T22:30:50.555Z,1.20
2023-08-08T22:33:19.554Z,1.20
2023-08-08T22:35:46.421Z,1.20
2023-08-08T22:38:13.266Z,1.10
2023-08-08T22:40:40.351Z,1.30
2023-08-08T22:43:07.268Z,1.10
2023-08-08T22:45:34.167Z,1.30
2023-08-08T22:48:01.297Z,1.30
2023-08-08T22:50:28.150Z,1.10
2023-08-08T22:52:55.011Z,1.00
2023-08-08T22:55:22.114Z,1.20
2023-08-08T22:57:49.002Z,1.10
2023-08-08T23:00:16.833Z,1.30
2023-08-08T23:02:43.753Z,1.30
2023-08-08T23:05:10.673Z,1.20
2023-08-08T23:07:37.589Z,1.20
2023-08-08T23:10:05.057Z,1.40
2023-08-08T23:12:32.165Z,1.10
2023-08-08T23:14:59.124Z,1.20
2023-08-08T23:17:25.968Z,1.10
2023-08-08T23:19:52.932Z,1.40
2023-08-08T23:22:19.972Z,1.40
2023-08-08T23:24:46.909Z,1.30
2023-08-08T23:27:13.900Z,1.30
2023-08-08T23:29:40.712Z,1.20
2023-08-08T23:32:07.689Z,1.70
2023-08-08T23:34:35.188Z,1.40
2023-08-08T23:37:02.502Z,1.40
2023-08-08T23:39:29.560Z,1.20
2023-08-08T23:41:56.540Z,1.20
2023-08-08T23:44:23.867Z,1.20
2023-08-08T23:46:51.070Z,1.40
2023-08-08T23:49:18.673Z,1.50
2023-08-08T23:51:45.985Z,1.70
2023-08-08T23:54:13.484Z,1.60
2023-08-08T23:56:42.482Z,1.20
2023-08-08T23:59:10.134Z,1.20
